Time;durP1;ratioP1;P1;durP2;ratioP2;P2;SDS_P1;SDS_P2;PMS_P1;PMS_P2;Temp;Humidity;BMP_temperature;BMP_pressure;BME280_temperature;BME280_humidity;BME280_pressure;Samples;Min_cycle;Max_cycle;Signal;HPM_P1;HPM_P2
2021/01/10 00:00:16;;;;;;;46.85;23.42;;;0.80;99.90;;;;;;5098030;28;20433;-68
2021/01/10 00:02:44;;;;;;;42.13;22.65;;;0.80;99.90;;;;;;5106245;28;20030;-68
2021/01/10 00:05:12;;;;;;;49.50;21.75;;;0.80;99.90;;;;;;5095702;27;20047;-66
2021/01/10 00:07:38;;;;;;;35.78;18.20;;;0.70;99.90;;;;;;5090954;28;20416;-67
2021/01/10 00:10:07;;;;;;;39.45;21.48;;;0.60;99.90;;;;;;5107940;28;20031;-67
2021/01/10 00:12:32;;;;;;;43.03;20.13;;;0.70;99.90;;;;;;5089485;28;20027;-67
2021/01/10 00:14:58;;;;;;;30.80;17.60;;;0.70;99.90;;;;;;5108449;28;20096;-67
2021/01/10 00:17:23;;;;;;;41.03;17.92;;;0.70;99.90;;;;;;5109428;28;20007;-68
2021/01/10 00:19:50;;;;;;;35.85;17.17;;;0.70;99.90;;;;;;5107423;28;20107;-67
2021/01/10 00:22:18;;;;;;;33.30;17.58;;;0.70;99.90;;;;;;5108200;28;20123;-67
2021/01/10 00:24:45;;;;;;;34.13;16.10;;;0.60;99.90;;;;;;5109373;28;20032;-68
2021/01/10 00:27:12;;;;;;;38.58;17.38;;;0.60;99.90;;;;;;5106760;28;20020;-68
2021/01/10 00:29:43;;;;;;;45.15;18.20;;;0.60;99.90;;;;;;5109228;28;20078;-68
2021/01/10 00:32:10;;;;;;;39.05;16.55;;;0.60;99.90;;;;;;5106771;28;20059;-68
2021/01/10 00:34:35;;;;;;;39.45;16.27;;;0.50;99.90;;;;;;5094642;28;20502;-67
2021/01/10 00:37:02;;;;;;;34.70;16.73;;;0.50;99.90;;;;;;5091132;28;20077;-68
2021/01/10 00:39:27;;;;;;;32.22;16.33;;;0.60;99.90;;;;;;5110755;27;20035;-67
2021/01/10 00:41:53;;;;;;;32.33;16.65;;;0.60;99.90;;;;;;5113508;27;20036;-69
2021/01/10 00:44:18;;;;;;;33.90;15.88;;;0.60;99.90;;;;;;5105409;28;20151;-67
2021/01/10 00:46:44;;;;;;;28.48;14.32;;;0.70;99.90;;;;;;5088927;28;20127;-67
2021/01/10 00:49:09;;;;;;;30.30;14.93;;;0.70;99.90;;;;;;5107210;28;20093;-68
2021/01/10 00:51:36;;;;;;;33.70;16.30;;;0.70;99.90;;;;;;5097005;28;20028;-68
2021/01/10 00:54:02;;;;;;;32.60;15.60;;;0.60;99.90;;;;;;5100960;28;20039;-68
2021/01/10 00:56:27;;;;;;;34.85;16.30;;;0.60;99.90;;;;;;5111185;28;20028;-67
2021/01/10 00:58:53;;;;;;;37.80;16.48;;;0.70;99.90;;;;;;5115649;28;20020;-68
2021/01/10 01:01:21;;;;;;;34.35;15.65;;;0.70;99.90;;;;;;5103987;28;20032;-67
2021/01/10 01:03:49;;;;;;;25.38;14.35;;;0.70;99.90;;;;;;5101911;28;20077;-67
2021/01/10 01:06:14;;;;;;;28.23;15.30;;;0.70;99.90;;;;;;5102315;28;20044;-67
2021/01/10 01:08:43;;;;;;;32.67;15.95;;;0.90;99.90;;;;;;5105779;28;20020;-69
2021/01/10 01:11:09;;;;;;;29.20;14.70;;;0.90;99.90;;;;;;5115239;28;20028;-67
2021/01/10 01:13:34;;;;;;;27.65;15.48;;;1.00;99.90;;;;;;5094190;28;20598;-69
2021/01/10 01:16:00;;;;;;;35.05;15.52;;;1.20;99.90;;;;;;5114512;28;20069;-68
2021/01/10 01:18:25;;;;;;;30.02;15.07;;;1.20;99.90;;;;;;5089069;28;20024;-69
2021/01/10 01:20:51;;;;;;;30.83;15.18;;;1.20;99.90;;;;;;5109013;28;20028;-65
2021/01/10 01:23:17;;;;;;;26.80;11.75;;;1.20;99.90;;;;;;5089234;28;20063;-68
2021/01/10 01:25:44;;;;;;;31.10;15.30;;;1.20;99.90;;;;;;5114904;28;20015;-68
2021/01/10 01:28:09;;;;;;;27.05;14.90;;;1.30;99.90;;;;;;5117547;28;20476;-66
2021/01/10 01:30:35;;;;;;;31.60;15.68;;;1.40;99.90;;;;;;5110325;28;20032;-68
2021/01/10 01:33:01;;;;;;;26.83;14.82;;;1.20;99.90;;;;;;5090194;28;20059;-68
2021/01/10 01:35:26;;;;;;;26.02;14.00;;;1.30;99.90;;;;;;5114702;27;20480;-68
2021/01/10 01:37:52;;;;;;;31.52;15.43;;;1.30;99.90;;;;;;5073525;28;20055;-69
2021/01/10 01:40:18;;;;;;;26.35;13.95;;;1.40;99.90;;;;;;5116855;27;20115;-67
2021/01/10 01:42:46;;;;;;;30.13;13.40;;;1.50;99.90;;;;;;5118509;27;20012;-68
2021/01/10 01:45:12;;;;;;;22.20;13.30;;;1.60;99.90;;;;;;5111548;28;20095;-67
2021/01/10 01:47:38;;;;;;;23.67;13.43;;;1.60;99.90;;;;;;5106919;28;20023;-68
2021/01/10 01:50:05;;;;;;;32.42;14.35;;;1.50;99.90;;;;;;5112028;28;20069;-67
2021/01/10 01:52:31;;;;;;;27.33;13.23;;;1.50;99.90;;;;;;5111506;28;20016;-69
2021/01/10 01:54:57;;;;;;;26.10;13.02;;;1.60;99.90;;;;;;5099224;28;20040;-67
2021/01/10 01:57:23;;;;;;;26.00;13.38;;;1.60;99.90;;;;;;5086122;28;20032;-68
2021/01/10 01:59:49;;;;;;;25.60;13.82;;;1.70;99.90;;;;;;5092042;28;20106;-68
2021/01/10 02:02:17;;;;;;;27.38;11.75;;;1.70;99.90;;;;;;5112399;28;20024;-66
2021/01/10 02:05:00;;;;;;;17.70;9.73;;;1.60;99.90;;;;;;5093383;28;20052;-67
2021/01/10 02:07:51;;;;;;;18.33;9.80;;;1.70;99.90;;;;;;5093524;28;20044;-67
2021/01/10 02:10:20;;;;;;;17.70;8.95;;;1.90;99.90;;;;;;5110527;27;20107;-66
2021/01/10 02:12:51;;;;;;;17.42;10.63;;;2.00;99.90;;;;;;5112051;27;20027;-68
2021/01/10 02:15:21;;;;;;;22.27;9.63;;;1.90;99.90;;;;;;5111032;27;20059;-68
2021/01/10 02:17:50;;;;;;;19.92;9.82;;;1.90;99.90;;;;;;5098020;28;20487;-67
2021/01/10 02:20:28;;;;;;;19.02;9.23;;;1.80;99.90;;;;;;5107478;28;20084;-68
2021/01/10 02:23:02;;;;;;;18.52;8.70;;;1.80;99.90;;;;;;5114400;27;20098;-67
2021/01/10 02:25:28;;;;;;;15.68;8.52;;;1.90;99.90;;;;;;5118243;27;20127;-67
2021/01/10 02:27:53;;;;;;;9.88;5.75;;;2.10;99.90;;;;;;5114727;27;20028;-68
2021/01/10 02:30:20;;;;;;;11.80;5.70;;;2.10;99.90;;;;;;5116822;27;20027;-67
2021/01/10 02:32:51;;;;;;;8.25;4.82;;;2.20;99.90;;;;;;5109976;28;20039;-67
2021/01/10 02:35:17;;;;;;;11.13;5.10;;;2.30;99.90;;;;;;5110599;28;20046;-67
2021/01/10 02:38:20;;;;;;;8.98;4.03;;;2.40;99.90;;;;;;5101437;28;20632;-68
2021/01/10 02:40:53;;;;;;;16.50;4.97;;;2.60;99.90;;;;;;5109789;27;20015;-67
2021/01/10 02:43:22;;;;;;;9.70;4.78;;;2.70;99.90;;;;;;5129362;27;20042;-67
2021/01/10 02:45:51;;;;;;;11.85;5.25;;;2.90;99.90;;;;;;5099744;28;20085;-66
2021/01/10 02:48:19;;;;;;;12.57;5.38;;;2.80;99.90;;;;;;5106793;28;20108;-67
2021/01/10 02:50:45;;;;;;;12.45;5.57;;;2.70;99.90;;;;;;5111148;28;20016;-67
2021/01/10 02:53:10;;;;;;;11.07;5.07;;;2.70;99.90;;;;;;5109816;28;20030;-67
2021/01/10 02:55:38;;;;;;;13.00;5.63;;;2.80;99.90;;;;;;5111375;28;20039;-66
2021/01/10 02:58:19;;;;;;;10.90;5.47;;;2.90;99.90;;;;;;5109694;28;20019;-68
2021/01/10 03:00:46;;;;;;;13.45;5.88;;;2.90;99.90;;;;;;5108107;28;20020;-70
2021/01/10 03:03:13;;;;;;;16.88;6.97;;;2.80;99.90;;;;;;5097388;27;20024;-67
2021/01/10 03:05:39;;;;;;;14.30;6.43;;;2.70;99.90;;;;;;5107592;28;20040;-68
2021/01/10 03:08:05;;;;;;;20.65;5.82;;;2.70;99.90;;;;;;5101361;28;20042;-67
2021/01/10 03:10:37;;;;;;;11.27;5.35;;;2.70;99.90;;;;;;5110781;27;20048;-68
2021/01/10 03:13:04;;;;;;;6.97;5.70;;;2.70;99.90;;;;;;5110994;27;20023;-68
2021/01/10 03:15:32;;;;;;;13.82;6.30;;;2.60;99.90;;;;;;5109718;28;20038;-68
2021/01/10 03:18:14;;;;;;;10.60;5.75;;;2.60;99.90;;;;;;5109829;28;20047;-66
2021/01/10 03:20:40;;;;;;;10.07;5.38;;;2.60;99.90;;;;;;5110173;28;20015;-67
2021/01/10 03:23:05;;;;;;;12.45;6.18;;;2.50;99.90;;;;;;5108354;27;20028;-68
2021/01/10 03:25:31;;;;;;;13.38;5.90;;;2.50;99.90;;;;;;5117255;27;20698;-66
2021/01/10 03:27:56;;;;;;;9.60;5.75;;;2.50;99.90;;;;;;5102805;28;20040;-66
2021/01/10 03:30:22;;;;;;;14.15;6.50;;;2.50;99.90;;;;;;5110588;28;20030;-66
2021/01/10 03:32:49;;;;;;;14.73;5.97;;;2.50;99.90;;;;;;5118226;27;20407;-68
2021/01/10 03:35:15;;;;;;;9.52;5.82;;;2.60;99.90;;;;;;5106316;28;20510;-68
2021/01/10 03:37:42;;;;;;;8.98;5.70;;;2.60;99.90;;;;;;5109040;28;20026;-67
2021/01/10 03:40:08;;;;;;;11.20;5.63;;;2.50;99.90;;;;;;5111214;27;20033;-66
2021/01/10 03:42:35;;;;;;;9.20;6.00;;;2.50;99.90;;;;;;5111523;27;20015;-66
2021/01/10 03:45:01;;;;;;;12.60;6.15;;;2.50;99.90;;;;;;5109929;28;20072;-66
2021/01/10 03:47:27;;;;;;;14.18;6.00;;;2.40;99.90;;;;;;5102215;27;20376;-67
2021/01/10 03:49:52;;;;;;;10.95;6.35;;;2.30;99.90;;;;;;5126428;27;20045;-67
2021/01/10 03:52:18;;;;;;;10.88;7.05;;;2.20;99.90;;;;;;5110416;27;20099;-67
2021/01/10 03:54:43;;;;;;;12.18;6.47;;;2.10;99.90;;;;;;5109699;28;20031;-68
2021/01/10 03:57:09;;;;;;;12.77;5.95;;;2.00;99.90;;;;;;5108058;28;20016;-66
2021/01/10 03:59:34;;;;;;;11.32;6.43;;;2.10;99.90;;;;;;5109946;27;20076;-68
2021/01/10 04:02:00;;;;;;;8.45;5.55;;;2.00;99.90;;;;;;5110558;27;20054;-67
2021/01/10 04:04:26;;;;;;;13.38;6.55;;;2.00;99.90;;;;;;5109616;28;20028;-67
2021/01/10 04:06:53;;;;;;;17.45;6.97;;;2.10;99.90;;;;;;5097720;27;20043;-67
2021/01/10 04:09:19;;;;;;;8.93;5.47;;;2.10;99.90;;;;;;5110292;27;20026;-68
2021/01/10 04:11:44;;;;;;;14.15;6.53;;;2.10;99.90;;;;;;5105451;28;20058;-68
2021/01/10 04:14:10;;;;;;;13.27;7.53;;;2.00;99.90;;;;;;5111048;27;20038;-67
2021/01/10 04:16:35;;;;;;;17.13;8.05;;;1.90;99.90;;;;;;5108390;28;20038;-67
2021/01/10 04:19:01;;;;;;;15.02;8.07;;;1.80;99.90;;;;;;5108419;28;20023;-68
2021/01/10 04:21:36;;;;;;;12.32;7.90;;;1.80;99.90;;;;;;5093585;28;20035;-67
2021/01/10 04:24:03;;;;;;;9.88;7.22;;;1.80;99.90;;;;;;5108009;28;20024;-67
2021/01/10 04:26:32;;;;;;;12.05;6.32;;;1.80;99.90;;;;;;5106713;28;20028;-68
2021/01/10 04:28:58;;;;;;;13.65;8.00;;;1.80;99.90;;;;;;5109655;28;20024;-67
2021/01/10 04:31:23;;;;;;;17.42;8.27;;;1.80;99.90;;;;;;5107653;28;20694;-67
2021/01/10 04:33:49;;;;;;;12.60;7.43;;;1.70;99.90;;;;;;5107959;28;20016;-67
2021/01/10 04:36:14;;;;;;;14.60;7.75;;;1.70;99.90;;;;;;5108870;28;20074;-67
2021/01/10 04:38:40;;;;;;;14.70;6.18;;;1.70;99.90;;;;;;5108868;28;20012;-67
2021/01/10 04:41:06;;;;;;;12.52;7.22;;;1.80;99.90;;;;;;5109351;28;20032;-67
2021/01/10 04:43:32;;;;;;;12.27;6.28;;;1.80;99.90;;;;;;5107836;28;20523;-66
2021/01/10 04:45:59;;;;;;;11.80;6.65;;;1.80;99.90;;;;;;5106965;28;20024;-68
2021/01/10 04:48:25;;;;;;;12.15;7.40;;;1.70;99.90;;;;;;5108366;28;20346;-68
2021/01/10 04:50:50;;;;;;;14.60;7.72;;;1.70;99.90;;;;;;5109250;28;20511;-67
2021/01/10 04:53:19;;;;;;;11.55;7.55;;;1.80;99.90;;;;;;5098067;28;20027;-68
2021/01/10 04:55:46;;;;;;;10.93;6.18;;;1.80;99.90;;;;;;5106888;28;20055;-68
2021/01/10 04:58:13;;;;;;;15.88;7.80;;;1.90;99.90;;;;;;5089583;28;20028;-68
2021/01/10 05:00:40;;;;;;;15.43;7.18;;;2.00;99.90;;;;;;5106843;28;20030;-67
2021/01/10 05:03:11;;;;;;;12.90;8.32;;;1.90;99.90;;;;;;5108914;28;20050;-67
2021/01/10 05:05:38;;;;;;;19.00;8.32;;;1.90;99.90;;;;;;5094274;28;20079;-68
2021/01/10 05:08:07;;;;;;;13.77;8.15;;;1.90;99.90;;;;;;5107023;28;20396;-67
2021/01/10 05:10:33;;;;;;;20.45;8.75;;;1.90;99.90;;;;;;5111660;28;20490;-66
2021/01/10 05:12:59;;;;;;;12.77;8.10;;;1.80;99.90;;;;;;5115216;27;20055;-68
2021/01/10 05:15:26;;;;;;;15.75;9.23;;;1.90;99.90;;;;;;5112801;28;20061;-67
2021/01/10 05:17:59;;;;;;;14.75;8.57;;;2.00;99.90;;;;;;5113845;27;20023;-67
2021/01/10 05:20:26;;;;;;;16.15;9.32;;;2.00;99.90;;;;;;5102112;27;20507;-66
2021/01/10 05:22:54;;;;;;;16.20;9.00;;;2.00;99.90;;;;;;5109387;28;20024;-67
2021/01/10 05:25:19;;;;;;;14.05;9.50;;;2.00;99.90;;;;;;5118221;27;20031;-67
2021/01/10 05:27:53;;;;;;;20.55;9.13;;;2.10;99.90;;;;;;5115650;27;20043;-67
2021/01/10 05:30:30;;;;;;;19.00;10.10;;;2.00;99.90;;;;;;5112389;27;20094;-66
2021/01/10 05:33:21;;;;;;;21.65;10.10;;;2.00;99.90;;;;;;5112242;28;20020;-68
2021/01/10 05:35:51;;;;;;;16.30;9.18;;;1.90;99.90;;;;;;5097898;28;20079;-66
2021/01/10 05:38:28;;;;;;;15.55;10.32;;;1.80;99.90;;;;;;5111212;27;20349;-68
2021/01/10 05:40:55;;;;;;;18.13;10.18;;;1.80;99.90;;;;;;5114437;27;20024;-67
2021/01/10 05:43:21;;;;;;;17.98;9.20;;;1.90;99.90;;;;;;5113884;27;20039;-67
2021/01/10 05:45:46;;;;;;;19.45;9.38;;;2.00;99.90;;;;;;5126228;27;20120;-66
2021/01/10 05:48:15;;;;;;;17.15;9.50;;;2.00;99.90;;;;;;5126876;27;20494;-67
2021/01/10 05:50:52;;;;;;;20.80;10.30;;;1.90;99.90;;;;;;5101865;28;20537;-65
2021/01/10 05:53:24;;;;;;;15.75;10.27;;;1.80;99.90;;;;;;5108463;28;20036;-66
2021/01/10 05:55:58;;;;;;;19.27;9.55;;;1.90;99.90;;;;;;5105855;28;20042;-67
2021/01/10 05:58:25;;;;;;;16.33;9.77;;;1.80;99.90;;;;;;5111587;28;20031;-66
2021/01/10 06:00:52;;;;;;;15.13;9.95;;;1.80;99.90;;;;;;5112659;27;20028;-67
2021/01/10 06:03:20;;;;;;;18.60;10.30;;;1.70;99.90;;;;;;5100119;28;20046;-67
2021/01/10 06:06:00;;;;;;;24.83;10.18;;;1.80;99.90;;;;;;5110136;28;20032;-67
2021/01/10 06:08:26;;;;;;;16.80;9.57;;;1.70;99.90;;;;;;5110819;28;20508;-67
2021/01/10 06:10:52;;;;;;;13.10;7.70;;;1.70;99.90;;;;;;5111739;28;20028;-67
2021/01/10 06:13:19;;;;;;;16.35;9.15;;;1.80;99.90;;;;;;5109461;28;20503;-66
2021/01/10 06:15:51;;;;;;;20.33;7.40;;;1.90;99.90;;;;;;5106798;28;20039;-68
2021/01/10 06:18:17;;;;;;;19.95;8.50;;;2.00;99.90;;;;;;5111698;28;20028;-67
2021/01/10 06:20:43;;;;;;;9.90;6.88;;;2.10;99.90;;;;;;5109341;28;20043;-67
2021/01/10 06:23:09;;;;;;;12.07;7.18;;;2.10;99.90;;;;;;5103886;28;20027;-68
2021/01/10 06:25:38;;;;;;;16.30;8.25;;;2.20;99.90;;;;;;5112333;28;20028;-67
2021/01/10 06:28:20;;;;;;;16.42;7.65;;;2.20;99.90;;;;;;5107210;28;20016;-68
2021/01/10 06:31:01;;;;;;;12.18;6.53;;;2.30;99.90;;;;;;5103498;28;20426;-69
2021/01/10 06:33:31;;;;;;;17.75;7.80;;;2.30;99.90;;;;;;5102743;27;20028;-67
2021/01/10 06:36:05;;;;;;;14.38;6.85;;;2.30;99.90;;;;;;5132531;27;20070;-67
2021/01/10 06:38:37;;;;;;;13.15;6.25;;;2.30;99.90;;;;;;5110248;27;20027;-66
2021/01/10 06:41:24;;;;;;;11.63;5.40;;;2.30;99.90;;;;;;5114897;27;20092;-67
2021/01/10 06:43:59;;;;;;;12.77;7.03;;;2.30;99.90;;;;;;5104527;28;20023;-67
2021/01/10 06:46:25;;;;;;;14.93;6.25;;;2.40;99.90;;;;;;5113198;27;20041;-67
2021/01/10 06:48:51;;;;;;;16.45;6.50;;;2.50;99.90;;;;;;5130397;27;20125;-68
2021/01/10 06:51:20;;;;;;;15.02;5.88;;;2.40;99.90;;;;;;5094054;28;20122;-67
2021/01/10 06:53:46;;;;;;;11.98;6.30;;;2.40;99.90;;;;;;5099673;28;20082;-67
2021/01/10 06:56:12;;;;;;;10.10;5.20;;;2.40;99.90;;;;;;5123590;27;20053;-67
2021/01/10 06:58:37;;;;;;;14.10;5.22;;;2.40;99.90;;;;;;5127012;27;20658;-67
2021/01/10 07:01:03;;;;;;;11.77;4.63;;;2.60;99.90;;;;;;5124252;27;20035;-68
2021/01/10 07:03:29;;;;;;;10.70;6.55;;;2.60;99.90;;;;;;5106264;27;20470;-68
2021/01/10 07:06:01;;;;;;;15.80;5.93;;;2.60;99.90;;;;;;5129461;27;20055;-66
2021/01/10 07:08:37;;;;;;;13.63;5.60;;;2.60;99.90;;;;;;5115101;27;20031;-66
2021/01/10 07:11:21;;;;;;;9.60;5.47;;;2.60;99.90;;;;;;5117313;27;20035;-66
2021/01/10 07:13:56;;;;;;;10.90;5.95;;;2.50;99.90;;;;;;5121052;27;20015;-67
2021/01/10 07:16:23;;;;;;;11.30;6.00;;;2.50;99.90;;;;;;5119786;27;20019;-66
2021/01/10 07:18:53;;;;;;;10.70;5.40;;;2.60;99.90;;;;;;5119401;27;20015;-66
2021/01/10 07:21:39;;;;;;;16.42;5.88;;;2.60;99.90;;;;;;5120299;27;20532;-66
2021/01/10 07:24:13;;;;;;;13.23;4.85;;;2.60;99.90;;;;;;5125495;27;20026;-67
2021/01/10 07:26:51;;;;;;;11.05;5.30;;;2.60;99.90;;;;;;5094320;28;20023;-68
2021/01/10 07:29:25;;;;;;;9.23;4.80;;;2.70;99.90;;;;;;5111246;27;20027;-68
2021/01/10 07:32:04;;;;;;;15.68;5.40;;;2.70;99.90;;;;;;5108579;27;20024;-67
2021/01/10 07:34:31;;;;;;;8.50;4.80;;;2.70;99.90;;;;;;5100376;28;20080;-67
2021/01/10 07:36:58;;;;;;;10.18;4.53;;;2.60;99.90;;;;;;5110151;27;20072;-67
2021/01/10 07:39:27;;;;;;;7.90;3.83;;;2.70;99.90;;;;;;5104581;27;20096;-68
2021/01/10 07:42:13;;;;;;;8.18;3.80;;;2.70;99.90;;;;;;5112151;27;20049;-67
2021/01/10 07:45:17;;;;;;;8.93;4.57;;;2.80;99.90;;;;;;5109765;27;20050;-66
2021/01/10 07:48:01;;;;;;;7.63;3.92;;;2.70;99.90;;;;;;5115621;27;20049;-67
2021/01/10 07:50:27;;;;;;;6.78;3.90;;;2.70;99.90;;;;;;5120292;27;20047;-67
2021/01/10 07:52:55;;;;;;;8.00;3.45;;;2.70;99.90;;;;;;5104454;27;20066;-67
2021/01/10 07:55:21;;;;;;;7.10;3.60;;;2.80;99.90;;;;;;5120017;27;20504;-67
2021/01/10 07:58:00;;;;;;;9.55;3.38;;;2.70;99.90;;;;;;5100926;27;20024;-67
2021/01/10 08:00:32;;;;;;;7.30;3.60;;;2.80;99.90;;;;;;5115875;27;20018;-67
2021/01/10 08:03:00;;;;;;;5.70;3.90;;;2.80;99.90;;;;;;5105474;27;20029;-67
2021/01/10 08:05:58;;;;;;;5.18;3.47;;;2.90;99.90;;;;;;5121947;27;20554;-67
2021/01/10 08:08:46;;;;;;;9.52;4.03;;;3.00;99.90;;;;;;5112380;27;20072;-65
2021/01/10 08:11:28;;;;;;;7.32;4.13;;;3.00;99.90;;;;;;5101476;28;20469;-67
2021/01/10 08:13:53;;;;;;;8.10;4.07;;;3.00;99.90;;;;;;5099674;28;20542;-67
2021/01/10 08:16:25;;;;;;;8.70;4.00;;;3.00;99.90;;;;;;5109142;28;20024;-67
2021/01/10 08:18:52;;;;;;;15.15;4.38;;;3.10;99.90;;;;;;5109688;28;20110;-67
2021/01/10 08:21:18;;;;;;;7.35;4.40;;;3.10;99.90;;;;;;5121153;27;20023;-67
2021/01/10 08:23:53;;;;;;;8.98;4.45;;;3.10;99.90;;;;;;5112001;27;20451;-67
2021/01/10 08:26:20;;;;;;;8.40;4.70;;;2.90;99.90;;;;;;5126197;27;20015;-67
2021/01/10 08:28:47;;;;;;;8.90;4.63;;;2.90;99.90;;;;;;5116988;27;20028;-67
2021/01/10 08:31:18;;;;;;;11.57;5.45;;;3.00;99.90;;;;;;5107160;28;20076;-68
2021/01/10 08:34:01;;;;;;;20.00;6.50;;;2.90;99.90;;;;;;5108447;28;20023;-66
2021/01/10 08:36:28;;;;;;;12.57;6.63;;;2.80;99.90;;;;;;5121112;27;20105;-67
2021/01/10 08:38:59;;;;;;;15.57;6.95;;;2.80;99.90;;;;;;5118752;27;20031;-68
2021/01/10 08:41:34;;;;;;;17.48;6.82;;;2.80;99.90;;;;;;5125588;27;20031;-66
2021/01/10 08:44:05;;;;;;;14.75;7.78;;;2.80;99.90;;;;;;5102544;27;20024;-64
2021/01/10 08:46:37;;;;;;;13.32;7.38;;;2.80;99.90;;;;;;5123035;27;20084;-67
2021/01/10 08:49:02;;;;;;;14.18;7.78;;;2.80;99.90;;;;;;5127983;27;20038;-66
2021/01/10 08:51:31;;;;;;;12.88;7.75;;;2.80;99.90;;;;;;5115065;28;20024;-69
2021/01/10 08:53:59;;;;;;;11.70;8.10;;;2.80;99.90;;;;;;5099284;28;20059;-67
2021/01/10 08:56:25;;;;;;;18.27;10.00;;;2.80;99.90;;;;;;5095169;28;20043;-67
2021/01/10 08:58:57;;;;;;;22.95;9.30;;;2.70;99.90;;;;;;5100948;28;20043;-69
2021/01/10 09:01:24;;;;;;;19.30;9.40;;;2.80;99.90;;;;;;5109085;28;20100;-66
2021/01/10 09:04:04;;;;;;;16.48;9.43;;;2.80;99.90;;;;;;5099160;28;20133;-66
2021/01/10 09:06:42;;;;;;;16.98;10.25;;;2.80;99.90;;;;;;5125415;27;20051;-67
2021/01/10 09:09:19;;;;;;;26.33;10.65;;;2.80;99.90;;;;;;5104861;28;20107;-68
2021/01/10 09:11:53;;;;;;;22.33;11.18;;;2.80;99.90;;;;;;5108329;28;20105;-67
2021/01/10 09:14:23;;;;;;;20.50;10.82;;;2.90;99.90;;;;;;5118316;28;20504;-66
2021/01/10 09:16:50;;;;;;;26.13;12.77;;;2.90;99.90;;;;;;5106588;28;20032;-67
2021/01/10 09:19:16;;;;;;;23.65;10.98;;;3.00;99.90;;;;;;5111738;28;20019;-70
2021/01/10 09:21:48;;;;;;;18.77;10.65;;;3.00;99.90;;;;;;5107466;28;20368;-68
2021/01/10 09:24:15;;;;;;;15.68;9.75;;;3.10;99.90;;;;;;5114568;28;20050;-67
2021/01/10 09:26:40;;;;;;;16.42;9.70;;;3.20;99.90;;;;;;5124389;27;20031;-67
2021/01/10 09:29:17;;;;;;;14.30;9.40;;;3.30;99.90;;;;;;5115904;28;20039;-68
2021/01/10 09:31:48;;;;;;;22.58;9.73;;;3.30;99.90;;;;;;5110575;28;20085;-70
2021/01/10 09:34:14;;;;;;;18.83;9.70;;;3.30;99.90;;;;;;5124650;27;20114;-67
2021/01/10 09:36:43;;;;;;;16.65;7.95;;;3.40;99.90;;;;;;5116420;28;20702;-69
2021/01/10 09:39:09;;;;;;;14.55;8.93;;;3.40;99.90;;;;;;5116347;28;20201;-67
2021/01/10 09:41:55;;;;;;;20.30;8.90;;;3.40;99.90;;;;;;5122208;27;20020;-67
2021/01/10 09:44:20;;;;;;;22.15;8.65;;;3.40;99.90;;;;;;5110559;28;20856;-68
2021/01/10 09:46:54;;;;;;;20.30;9.27;;;3.50;99.90;;;;;;5119032;28;20035;-70
2021/01/10 09:49:23;;;;;;;19.23;8.63;;;3.50;99.90;;;;;;5113158;28;20015;-65
2021/01/10 09:52:03;;;;;;;17.60;9.02;;;3.50;99.90;;;;;;5120198;28;20373;-68
2021/01/10 09:54:31;;;;;;;15.05;8.10;;;3.60;99.90;;;;;;5115013;27;20058;-67
2021/01/10 09:57:10;;;;;;;12.70;8.60;;;3.60;99.90;;;;;;5117984;27;20066;-65
2021/01/10 09:59:41;;;;;;;18.08;7.97;;;3.70;99.90;;;;;;5124948;27;20019;-68
2021/01/10 10:02:11;;;;;;;12.65;8.27;;;3.60;99.90;;;;;;5119650;27;20019;-69
2021/01/10 10:04:37;;;;;;;19.63;8.15;;;3.60;99.90;;;;;;5121078;27;20027;-68
2021/01/10 10:07:04;;;;;;;16.75;8.95;;;3.60;99.90;;;;;;5111716;27;20069;-68
2021/01/10 10:09:47;;;;;;;15.07;8.23;;;3.60;99.90;;;;;;5112472;28;20031;-67
2021/01/10 10:12:13;;;;;;;15.55;7.57;;;3.70;99.90;;;;;;5111221;28;20035;-67
2021/01/10 10:14:58;;;;;;;17.20;7.82;;;3.70;99.90;;;;;;5112207;28;20044;-69
2021/01/10 10:17:30;;;;;;;11.45;6.85;;;3.70;99.90;;;;;;5110905;27;20048;-67
2021/01/10 10:19:56;;;;;;;12.55;7.60;;;3.80;99.90;;;;;;5124207;27;20027;-66
2021/01/10 10:22:27;;;;;;;14.00;6.40;;;3.80;99.90;;;;;;5125496;27;20015;-67
2021/01/10 10:24:54;;;;;;;13.27;7.07;;;4.00;99.90;;;;;;5118857;27;20435;-67
2021/01/10 10:27:20;;;;;;;14.52;7.25;;;3.90;99.90;;;;;;5117598;27;20109;-68
2021/01/10 10:29:45;;;;;;;16.38;8.32;;;4.00;99.90;;;;;;5113867;27;20107;-67
2021/01/10 10:32:11;;;;;;;11.20;7.30;;;4.00;99.90;;;;;;5108492;27;20059;-67
2021/01/10 10:34:37;;;;;;;15.23;7.45;;;4.00;99.90;;;;;;5115661;27;20030;-67
2021/01/10 10:37:07;;;;;;;16.73;7.35;;;4.10;99.90;;;;;;5114505;27;20121;-67
2021/01/10 10:39:34;;;;;;;11.73;6.47;;;4.10;99.90;;;;;;5125545;27;20023;-68
2021/01/10 10:41:59;;;;;;;12.88;6.70;;;4.20;99.90;;;;;;5114640;27;20019;-69
2021/01/10 10:44:25;;;;;;;15.18;6.80;;;4.30;99.90;;;;;;5111634;28;20420;-67
2021/01/10 10:46:50;;;;;;;17.73;6.43;;;4.20;99.90;;;;;;5110447;28;20765;-67
2021/01/10 10:49:16;;;;;;;16.80;6.38;;;4.30;99.90;;;;;;5116533;27;20039;-67
2021/01/10 10:51:41;;;;;;;11.85;5.57;;;4.30;99.90;;;;;;5100526;27;20015;-68
2021/01/10 10:54:08;;;;;;;12.13;6.63;;;4.40;99.90;;;;;;5115100;27;20023;-67
2021/01/10 10:56:39;;;;;;;7.35;5.50;;;4.40;99.90;;;;;;5119350;27;20043;-69
2021/01/10 10:59:05;;;;;;;9.57;5.22;;;4.40;99.90;;;;;;5115593;27;20035;-68
2021/01/10 11:01:42;;;;;;;9.82;5.88;;;4.40;99.90;;;;;;5117621;27;20029;-67
2021/01/10 11:04:08;;;;;;;9.05;5.20;;;4.40;99.90;;;;;;5106959;27;20042;-67
2021/01/10 11:06:34;;;;;;;11.40;5.40;;;4.50;99.90;;;;;;5117728;27;20040;-66
2021/01/10 11:09:01;;;;;;;11.35;5.50;;;4.60;99.90;;;;;;5111455;27;20423;-67
2021/01/10 11:11:40;;;;;;;9.57;4.95;;;4.70;99.90;;;;;;5115908;27;20422;-67
2021/01/10 11:14:06;;;;;;;7.78;4.65;;;4.80;99.90;;;;;;5120727;27;20102;-67
2021/01/10 11:16:33;;;;;;;9.05;4.72;;;4.80;99.90;;;;;;5119101;27;20028;-67
2021/01/10 11:19:00;;;;;;;9.10;4.38;;;4.90;99.90;;;;;;5121275;27;20111;-66
2021/01/10 11:21:30;;;;;;;11.48;4.82;;;5.10;99.90;;;;;;5110683;27;20019;-67
2021/01/10 11:23:56;;;;;;;8.30;4.85;;;5.20;99.90;;;;;;5126917;27;20623;-67
2021/01/10 11:26:22;;;;;;;6.75;3.92;;;5.30;99.90;;;;;;5117068;27;20043;-66
2021/01/10 11:28:47;;;;;;;13.57;4.85;;;5.30;99.90;;;;;;5116002;27;20620;-68
2021/01/10 11:31:13;;;;;;;7.47;4.60;;;5.30;99.90;;;;;;5100614;27;20031;-66
2021/01/10 11:33:39;;;;;;;6.00;4.03;;;5.30;99.90;;;;;;5118813;27;20076;-69
2021/01/10 11:36:08;;;;;;;9.48;4.55;;;5.30;99.90;;;;;;5121097;27;20042;-67
2021/01/10 11:38:35;;;;;;;14.30;4.18;;;5.30;99.90;;;;;;5115171;27;20045;-67
2021/01/10 11:41:09;;;;;;;8.35;4.68;;;5.40;99.90;;;;;;5120422;27;20038;-68
2021/01/10 11:43:34;;;;;;;7.00;4.30;;;5.40;99.90;;;;;;5109149;28;20030;-68
2021/01/10 11:46:02;;;;;;;10.80;5.72;;;5.40;99.90;;;;;;5114602;27;20102;-69
2021/01/10 11:48:28;;;;;;;10.40;5.45;;;5.30;99.90;;;;;;5110683;27;20053;-67
2021/01/10 11:50:53;;;;;;;7.13;4.35;;;5.30;99.90;;;;;;5100814;27;20069;-69
2021/01/10 11:53:19;;;;;;;8.18;4.40;;;5.30;99.90;;;;;;5110189;27;20403;-68
2021/01/10 11:55:44;;;;;;;9.82;6.05;;;5.30;99.90;;;;;;5110728;27;20067;-67
2021/01/10 11:58:11;;;;;;;13.70;5.25;;;5.30;99.90;;;;;;5097205;27;20024;-68
2021/01/10 12:00:37;;;;;;;10.25;4.95;;;5.30;99.90;;;;;;5098377;27;20562;-67
2021/01/10 12:03:03;;;;;;;11.20;5.55;;;5.30;99.90;;;;;;5106664;27;20047;-68
2021/01/10 12:05:28;;;;;;;7.32;5.13;;;5.20;99.90;;;;;;5109622;27;20067;-66
2021/01/10 12:07:54;;;;;;;9.27;5.00;;;5.10;99.90;;;;;;5107526;28;20032;-68
2021/01/10 12:10:20;;;;;;;9.38;5.45;;;5.10;99.90;;;;;;5109705;27;20109;-68
2021/01/10 12:12:46;;;;;;;8.80;5.75;;;5.30;99.90;;;;;;5118229;27;20476;-68
2021/01/10 12:15:13;;;;;;;8.43;5.47;;;5.90;99.90;;;;;;5117308;27;20033;-68
2021/01/10 12:17:38;;;;;;;18.50;5.35;;;6.40;99.90;;;;;;5113732;27;20049;-69
2021/01/10 12:20:05;;;;;;;9.25;5.13;;;6.80;99.90;;;;;;5112991;27;20023;-67
2021/01/10 12:22:31;;;;;;;9.07;5.20;;;7.10;99.90;;;;;;5114273;27;20427;-68
2021/01/10 12:24:56;;;;;;;8.23;5.22;;;7.40;99.90;;;;;;5109341;28;20587;-69
2021/01/10 12:27:22;;;;;;;7.88;4.40;;;7.60;99.90;;;;;;5108667;28;20039;-68
2021/01/10 12:29:47;;;;;;;7.10;4.07;;;7.80;99.90;;;;;;5108725;28;20373;-69
2021/01/10 12:32:13;;;;;;;9.93;4.85;;;7.70;99.90;;;;;;5099246;28;20043;-68
2021/01/10 12:34:38;;;;;;;10.95;5.28;;;7.80;99.90;;;;;;5108479;28;20123;-67
2021/01/10 12:37:04;;;;;;;9.70;4.53;;;7.60;99.90;;;;;;5108995;28;20023;-69
2021/01/10 12:39:30;;;;;;;13.20;4.15;;;7.40;99.90;;;;;;5115929;27;20480;-68
2021/01/10 12:41:56;;;;;;;8.02;4.63;;;7.60;99.90;;;;;;5120394;27;20023;-68
2021/01/10 12:44:22;;;;;;;6.93;4.13;;;7.60;99.90;;;;;;5108910;27;20106;-69
2021/01/10 12:46:48;;;;;;;9.00;4.20;;;7.30;99.90;;;;;;5104416;27;20048;-70
2021/01/10 12:49:14;;;;;;;7.38;4.25;;;7.10;99.90;;;;;;5124606;27;20463;-68
2021/01/10 12:51:40;;;;;;;7.43;4.07;;;7.00;99.90;;;;;;5112467;27;20032;-69
2021/01/10 12:54:06;;;;;;;6.15;3.88;;;7.00;99.90;;;;;;5106681;28;20024;-68
2021/01/10 12:56:32;;;;;;;6.55;3.85;;;7.00;99.90;;;;;;5100320;28;20028;-69